createdAt,value
2022-08-02T00:01:18.493Z,1.65
2022-08-02T00:03:45.007Z,3.53
2022-08-02T00:06:11.544Z,2.45
2022-08-02T00:08:38.049Z,1.30
2022-08-02T00:11:04.543Z,1.75
2022-08-02T00:13:31.143Z,2.25
2022-08-02T00:15:57.806Z,1.38
2022-08-02T00:18:24.280Z,1.70
2022-08-02T00:20:50.825Z,2.40
2022-08-02T00:23:17.384Z,1.58
2022-08-02T00:25:55.188Z,1.63
2022-08-02T00:28:27.432Z,1.48
2022-08-02T00:30:54.615Z,1.73
2022-08-02T00:34:27.175Z,1.67
2022-08-02T00:36:07.690Z,1.33
2022-08-02T00:38:34.142Z,2.20
2022-08-02T00:41:00.624Z,2.17
2022-08-02T00:43:27.076Z,3.55
2022-08-02T00:46:02.646Z,4.18
2022-08-02T00:48:30.684Z,1.15
2022-08-02T00:50:58.819Z,1.23
2022-08-02T00:53:25.284Z,3.53
2022-08-02T00:55:51.760Z,5.30
2022-08-02T00:58:19.056Z,1.77
2022-08-02T01:00:45.527Z,2.00
2022-08-02T01:03:12.048Z,3.78
2022-08-02T01:06:10.192Z,4.82
2022-08-02T01:08:29.332Z,5.38
2022-08-02T01:10:58.139Z,2.85
2022-08-02T01:13:27.555Z,1.85
2022-08-02T01:16:16.066Z,3.58
2022-08-02T01:18:47.848Z,3.70
2022-08-02T01:21:22.158Z,3.75
2022-08-02T01:24:17.368Z,2.47
2022-08-02T01:26:53.226Z,3.50
2022-08-02T01:29:37.585Z,2.70
2022-08-02T01:32:14.355Z,3.30
2022-08-02T01:34:50.802Z,5.20
2022-08-02T01:37:23.032Z,10.80
2022-08-02T01:39:55.219Z,2.45
2022-08-02T01:42:24.651Z,1.85
2022-08-02T01:44:53.484Z,2.55
2022-08-02T01:47:26.072Z,3.33
2022-08-02T01:49:56.683Z,2.38
2022-08-02T01:52:30.674Z,1.27
2022-08-02T01:55:01.764Z,3.10
2022-08-02T01:57:34.979Z,2.00
2022-08-02T02:00:10.261Z,0.50
2022-08-02T02:02:38.741Z,1.33
2022-08-02T02:05:06.437Z,1.23
2022-08-02T02:07:36.032Z,1.92
2022-08-02T02:10:04.447Z,2.92
2022-08-02T02:12:32.824Z,0.88
2022-08-02T02:15:02.247Z,2.42
2022-08-02T02:17:53.170Z,1.92
2022-08-02T02:20:20.558Z,1.27
2022-08-02T02:22:49.759Z,1.70
2022-08-02T02:25:19.445Z,1.25
2022-08-02T02:28:00.619Z,1.50
2022-08-02T02:30:30.363Z,3.13
2022-08-02T02:33:00.136Z,3.45
2022-08-02T02:35:37.337Z,1.45
2022-08-02T02:38:06.654Z,1.85
2022-08-02T02:40:35.555Z,1.58
2022-08-02T02:43:02.896Z,1.13
2022-08-02T02:45:31.836Z,1.17
2022-08-02T02:48:00.564Z,3.00
2022-08-02T02:50:28.948Z,1.95
2022-08-02T02:52:56.302Z,1.63
2022-08-02T02:55:24.325Z,2.45
2022-08-02T02:57:50.955Z,3.38
2022-08-02T03:00:17.548Z,0.90
2022-08-02T03:02:45.487Z,1.83
2022-08-02T03:05:13.043Z,1.50
2022-08-02T03:07:40.217Z,1.50
2022-08-02T03:10:07.507Z,2.05
2022-08-02T03:12:35.559Z,2.78
2022-08-02T03:15:05.535Z,2.97
2022-08-02T03:17:43.289Z,1.55
2022-08-02T03:20:19.291Z,3.42
2022-08-02T03:22:46.623Z,2.72
2022-08-02T03:25:14.933Z,1.70
2022-08-02T03:27:41.727Z,1.52
2022-08-02T03:30:10.744Z,2.58
2022-08-02T03:32:39.105Z,0.82
2022-08-02T03:35:07.891Z,2.78
2022-08-02T03:37:37.128Z,3.35
2022-08-02T03:40:06.994Z,0.90
2022-08-02T03:42:33.550Z,2.50
2022-08-02T03:45:07.753Z,1.30
2022-08-02T03:47:36.057Z,2.38
2022-08-02T03:50:02.659Z,1.83
2022-08-02T03:52:31.533Z,2.58
2022-08-02T03:54:58.224Z,3.15
2022-08-02T03:57:24.747Z,0.60
2022-08-02T03:59:51.339Z,1.50
2022-08-02T04:02:17.816Z,1.92
2022-08-02T04:04:44.355Z,2.15
2022-08-02T04:07:10.803Z,3.47
2022-08-02T04:09:37.911Z,2.88
2022-08-02T04:12:04.763Z,3.80
2022-08-02T04:14:31.401Z,1.48
2022-08-02T04:17:07.176Z,1.63
2022-08-02T04:19:47.292Z,3.88
2022-08-02T04:22:18.387Z,3.13
2022-08-02T04:24:50.755Z,3.35
2022-08-02T04:27:51.016Z,2.17
2022-08-02T04:30:07.143Z,3.13
2022-08-02T04:32:35.066Z,4.22
2022-08-02T04:38:05.589Z,5.63
2022-08-02T04:40:36.225Z,1.77
2022-08-02T04:43:02.665Z,4.07
2022-08-02T04:45:29.643Z,1.85
2022-08-02T04:48:04.654Z,5.43
2022-08-02T04:50:32.025Z,2.70
2022-08-02T04:52:58.614Z,3.10
2022-08-02T04:55:28.659Z,2.08
2022-08-02T04:57:56.106Z,4.22
2022-08-02T05:00:23.236Z,1.85
2022-08-02T05:02:50.603Z,2.28
2022-08-02T05:05:17.190Z,1.73
2022-08-02T05:07:43.785Z,2.65
2022-08-02T05:10:10.892Z,1.95
2022-08-02T05:12:41.049Z,2.60
2022-08-02T05:15:12.557Z,0.82
2022-08-02T05:17:48.186Z,5.00
2022-08-02T05:20:19.773Z,4.15
2022-08-02T05:22:47.456Z,3.10
2022-08-02T05:25:14.596Z,1.58
2022-08-02T05:27:41.430Z,5.13
2022-08-02T05:30:09.222Z,1.33
2022-08-02T05:32:43.463Z,2.78
2022-08-02T05:37:36.330Z,2.85
2022-08-02T05:40:03.030Z,7.78
2022-08-02T05:42:32.792Z,5.28
2022-08-02T05:45:00.147Z,4.57
2022-08-02T05:47:26.672Z,2.83
2022-08-02T05:49:53.371Z,8.80
2022-08-02T05:52:20.922Z,6.20
2022-08-02T05:54:54.315Z,5.93
2022-08-02T05:57:23.860Z,8.55
2022-08-02T06:00:03.065Z,12.55
2022-08-02T06:02:42.723Z,13.75
2022-08-02T06:05:19.033Z,22.60
2022-08-02T06:07:47.179Z,12.48
2022-08-02T06:10:15.448Z,8.73
2022-08-02T06:13:00.996Z,13.18
2022-08-02T06:15:28.446Z,16.30
2022-08-02T06:17:55.988Z,16.52
2022-08-02T06:20:24.200Z,15.77
2022-08-02T06:22:52.111Z,13.80
2022-08-02T06:25:50.290Z,9.27
2022-08-02T06:28:10.204Z,12.15
2022-08-02T06:30:38.955Z,9.68
2022-08-02T06:33:05.369Z,13.52
2022-08-02T06:36:03.127Z,11.00
2022-08-02T06:38:37.611Z,10.77
2022-08-02T06:41:09.505Z,15.10
2022-08-02T06:43:50.429Z,11.50
2022-08-02T06:46:37.619Z,13.98
2022-08-02T06:49:04.536Z,7.13
2022-08-02T06:51:31.183Z,9.77
2022-08-02T06:53:57.703Z,7.43
2022-08-02T06:56:24.299Z,7.85
2022-08-02T06:58:50.737Z,4.40
2022-08-02T07:01:19.513Z,4.43
2022-08-02T07:03:46.144Z,4.22
2022-08-02T07:06:12.697Z,3.90
2022-08-02T07:08:39.510Z,5.05
2022-08-02T07:11:06.929Z,4.18
2022-08-02T07:13:37.987Z,3.38
2022-08-02T07:16:06.256Z,3.65
2022-08-02T07:18:32.810Z,1.73
2022-08-02T07:20:59.278Z,8.13
2022-08-02T07:23:25.709Z,3.10
2022-08-02T07:26:01.951Z,1.33
2022-08-02T07:28:30.971Z,3.72
2022-08-02T07:30:57.434Z,2.33
2022-08-02T07:33:37.330Z,2.88
2022-08-02T07:36:08.179Z,1.27
2022-08-02T07:38:36.151Z,3.92
2022-08-02T07:41:04.544Z,1.48
2022-08-02T07:43:31.398Z,3.03
2022-08-02T07:46:01.094Z,4.63
2022-08-02T07:48:27.772Z,3.50
2022-08-02T07:50:54.537Z,1.48
2022-08-02T07:53:20.986Z,2.03
2022-08-02T07:56:07.418Z,1.67
2022-08-02T07:58:33.875Z,3.08
2022-08-02T08:01:00.319Z,3.15
2022-08-02T08:03:26.790Z,3.40
2022-08-02T08:05:54.451Z,4.53
2022-08-02T08:08:21.023Z,1.13
2022-08-02T08:10:47.780Z,1.98
2022-08-02T08:13:14.898Z,1.77
2022-08-02T08:15:41.471Z,1.40
2022-08-02T08:18:17.950Z,1.50
2022-08-02T08:20:44.883Z,1.20
2022-08-02T08:23:11.347Z,1.95
2022-08-02T08:25:41.449Z,2.25
2022-08-02T08:28:08.919Z,4.30
2022-08-02T08:30:35.756Z,1.00
2022-08-02T08:33:02.913Z,1.20
2022-08-02T08:35:29.448Z,1.85
2022-08-02T08:37:55.929Z,3.38
2022-08-02T08:40:25.123Z,2.10
2022-08-02T08:42:51.962Z,1.05
2022-08-02T08:45:18.666Z,2.25
2022-08-02T08:47:51.755Z,3.75
2022-08-02T08:50:24.931Z,0.70
2022-08-02T08:53:06.699Z,1.30
2022-08-02T08:55:36.232Z,1.95
2022-08-02T08:58:04.880Z,1.05
2022-08-02T09:00:33.212Z,0.55
2022-08-02T09:03:02.010Z,3.70
2022-08-02T09:05:28.438Z,2.83
2022-08-02T09:07:54.926Z,1.73
2022-08-02T09:10:41.388Z,1.45
2022-08-02T09:13:38.127Z,1.10
2022-08-02T09:16:12.077Z,2.50
2022-08-02T09:18:45.019Z,1.70
2022-08-02T09:21:12.797Z,3.83
2022-08-02T09:23:41.172Z,0.82
2022-08-02T09:26:10.052Z,1.45
2022-08-02T09:28:38.701Z,2.03
2022-08-02T09:31:05.163Z,0.68
2022-08-02T09:33:32.367Z,1.77
2022-08-02T09:36:05.370Z,1.50
2022-08-02T09:38:35.430Z,1.73
2022-08-02T09:41:04.432Z,2.88
2022-08-02T09:44:03.404Z,2.10
2022-08-02T09:46:38.005Z,0.77
2022-08-02T09:49:08.372Z,0.60
2022-08-02T09:52:01.441Z,1.10
2022-08-02T09:54:29.306Z,0.93
2022-08-02T09:56:59.390Z,0.85
2022-08-02T09:59:27.671Z,1.77
2022-08-02T10:02:01.333Z,2.25
2022-08-02T10:04:31.514Z,1.88
2022-08-02T10:06:59.827Z,0.65
2022-08-02T10:09:28.889Z,1.00
2022-08-02T10:11:56.169Z,0.43
2022-08-02T10:14:23.808Z,3.05
2022-08-02T10:16:50.553Z,1.77
2022-08-02T10:19:17.053Z,0.75
2022-08-02T10:21:59.836Z,0.75
2022-08-02T10:24:31.584Z,1.40
2022-08-02T10:26:59.808Z,1.30
2022-08-02T10:29:50.492Z,3.00
2022-08-02T10:35:25.062Z,0.75
2022-08-02T10:38:03.751Z,0.43
2022-08-02T10:40:51.348Z,0.77
2022-08-02T10:43:44.888Z,1.00
2022-08-02T10:46:33.790Z,0.63
2022-08-02T10:49:39.367Z,0.50
2022-08-02T10:52:06.290Z,2.15
2022-08-02T10:54:46.435Z,1.05
2022-08-02T10:57:26.156Z,1.13
2022-08-02T11:00:01.651Z,1.17
2022-08-02T11:02:46.678Z,0.40
2022-08-02T11:05:42.738Z,1.33
2022-08-02T11:08:21.543Z,13.75
2022-08-02T11:10:48.211Z,1.48
2022-08-02T11:13:16.975Z,1.27
2022-08-02T11:15:49.972Z,2.15
2022-08-02T11:18:17.523Z,0.70
2022-08-02T11:20:44.242Z,2.33
2022-08-02T11:23:44.604Z,2.85
2022-08-02T11:26:30.499Z,2.13
2022-08-02T11:28:58.456Z,2.70
2022-08-02T11:31:25.963Z,2.83
2022-08-02T11:33:52.959Z,2.50
2022-08-02T11:36:19.780Z,1.77
2022-08-02T11:38:49.408Z,1.80
2022-08-02T11:41:47.000Z,0.95
2022-08-02T11:44:07.170Z,1.17
2022-08-02T11:46:33.894Z,0.98
2022-08-02T11:49:16.253Z,1.00
2022-08-02T11:52:01.775Z,2.97
2022-08-02T11:54:31.056Z,2.05
2022-08-02T11:57:21.361Z,0.98
2022-08-02T11:59:53.477Z,0.50
2022-08-02T12:02:28.877Z,1.27
2022-08-02T12:05:02.419Z,2.83
2022-08-02T12:07:34.736Z,0.93
2022-08-02T12:10:09.662Z,0.88
2022-08-02T12:12:59.355Z,1.15
2022-08-02T12:15:37.668Z,0.77
2022-08-02T12:18:27.982Z,1.48
2022-08-02T12:20:54.619Z,3.50
2022-08-02T12:23:21.342Z,1.90
2022-08-02T12:26:15.851Z,1.35
2022-08-02T12:28:43.314Z,1.40
2022-08-02T12:31:13.298Z,2.10
2022-08-02T12:33:51.032Z,2.13
2022-08-02T12:36:27.743Z,2.50
2022-08-02T12:39:01.816Z,2.00
2022-08-02T12:41:31.371Z,0.68
2022-08-02T12:43:59.626Z,0.60
2022-08-02T12:46:26.118Z,1.80
2022-08-02T12:49:16.845Z,1.60
2022-08-02T12:51:50.932Z,0.93
2022-08-02T12:54:31.573Z,1.25
2022-08-02T12:57:11.076Z,1.25
2022-08-02T12:59:39.837Z,2.03
2022-08-02T13:02:10.977Z,1.70
2022-08-02T13:04:38.120Z,2.22
2022-08-02T13:07:05.205Z,1.00
2022-08-02T13:09:40.272Z,1.65
2022-08-02T13:12:08.252Z,2.25
2022-08-02T13:14:39.917Z,3.78
2022-08-02T13:17:09.140Z,1.85
2022-08-02T13:19:36.849Z,0.40
2022-08-02T13:22:04.154Z,1.00
2022-08-02T13:24:40.054Z,0.80
2022-08-02T13:27:20.892Z,0.47
2022-08-02T13:29:48.904Z,1.95
2022-08-02T13:32:16.223Z,1.77
2022-08-02T13:34:43.403Z,2.28
2022-08-02T13:37:10.331Z,2.55
2022-08-02T13:39:36.827Z,2.05
2022-08-02T13:42:03.548Z,0.88
2022-08-02T13:44:30.197Z,1.65
2022-08-02T13:46:56.969Z,1.55
2022-08-02T13:49:49.732Z,2.58
2022-08-02T13:52:12.048Z,2.83
2022-08-02T13:54:38.679Z,3.55
2022-08-02T13:57:05.180Z,5.93
2022-08-02T13:59:56.328Z,3.30
2022-08-02T14:02:18.621Z,2.17
2022-08-02T14:04:45.357Z,0.73
2022-08-02T14:07:11.989Z,3.10
2022-08-02T14:09:38.499Z,3.17
2022-08-02T14:12:09.579Z,1.83
2022-08-02T14:14:36.375Z,2.00
2022-08-02T14:17:02.940Z,2.53
2022-08-02T14:19:29.384Z,0.90
2022-08-02T14:22:11.128Z,1.50
2022-08-02T14:24:39.491Z,0.73
2022-08-02T14:27:06.240Z,3.03
2022-08-02T14:29:32.888Z,4.40
2022-08-02T14:31:59.516Z,1.77
2022-08-02T14:34:26.001Z,2.78
2022-08-02T14:36:53.965Z,3.08
2022-08-02T14:39:21.295Z,3.38
2022-08-02T14:41:58.302Z,3.45
2022-08-02T14:44:27.305Z,2.72
2022-08-02T14:46:56.844Z,2.47
2022-08-02T14:49:25.561Z,2.63
2022-08-02T14:51:54.355Z,1.92
2022-08-02T14:54:28.293Z,2.45
2022-08-02T14:56:59.222Z,5.18
2022-08-02T14:59:25.778Z,6.45
2022-08-02T15:01:52.521Z,5.65
2022-08-02T15:04:19.040Z,5.60
2022-08-02T15:06:45.692Z,5.22
2022-08-02T15:09:13.568Z,4.07
2022-08-02T15:11:47.013Z,6.32
2022-08-02T15:14:15.000Z,7.15
2022-08-02T15:16:55.472Z,7.25
2022-08-02T15:19:22.847Z,9.45
2022-08-02T15:21:54.445Z,7.95
2022-08-02T15:24:21.355Z,9.02
2022-08-02T15:26:50.102Z,9.18
2022-08-02T15:29:17.824Z,8.68
2022-08-02T15:31:44.603Z,13.85
2022-08-02T15:34:11.077Z,8.30
2022-08-02T15:36:37.817Z,9.02
2022-08-02T15:39:05.374Z,13.52
2022-08-02T15:41:32.375Z,7.88
2022-08-02T15:44:01.828Z,6.80
2022-08-02T15:46:31.100Z,7.22
2022-08-02T15:48:59.749Z,8.48
2022-08-02T15:51:27.055Z,9.10
2022-08-02T15:53:53.679Z,10.05
2022-08-02T15:56:24.008Z,11.00
2022-08-02T15:58:52.996Z,8.77
2022-08-02T16:01:23.822Z,6.50
2022-08-02T16:03:50.432Z,8.25
2022-08-02T16:06:16.935Z,7.47
2022-08-02T16:08:53.638Z,7.95
2022-08-02T16:11:21.975Z,11.30
2022-08-02T16:13:53.330Z,10.90
2022-08-02T16:16:26.442Z,9.52
2022-08-02T16:18:53.177Z,6.43
2022-08-02T16:21:19.782Z,10.38
2022-08-02T16:24:01.664Z,10.77
2022-08-02T16:26:34.212Z,6.50
2022-08-02T16:29:01.648Z,7.60
2022-08-02T16:31:28.387Z,8.18
2022-08-02T16:33:57.188Z,6.93
2022-08-02T16:36:25.686Z,5.97
2022-08-02T16:38:56.011Z,6.35
2022-08-02T16:41:23.031Z,6.65
2022-08-02T16:43:49.686Z,6.50
2022-08-02T16:46:16.403Z,7.53
2022-08-02T16:51:31.216Z,10.30
2022-08-02T16:54:00.555Z,6.60
2022-08-02T16:56:28.246Z,5.38
2022-08-02T16:58:55.039Z,6.40
2022-08-02T17:01:24.070Z,5.80
2022-08-02T17:03:56.422Z,8.82
2022-08-02T17:06:26.173Z,7.93
2022-08-02T17:08:54.412Z,5.53
2022-08-02T17:11:21.525Z,5.50
2022-08-02T17:13:50.964Z,7.80
2022-08-02T17:16:20.616Z,5.93
2022-08-02T17:19:04.451Z,4.88
2022-08-02T17:21:31.907Z,11.35
2022-08-02T17:24:07.750Z,4.75
2022-08-02T17:26:36.956Z,6.60
2022-08-02T17:29:15.496Z,9.35
2022-08-02T17:31:46.535Z,4.70
2022-08-02T17:34:31.439Z,4.82
2022-08-02T17:36:57.964Z,4.93
2022-08-02T17:39:29.352Z,7.40
2022-08-02T17:42:00.696Z,5.75
2022-08-02T17:44:37.100Z,5.13
2022-08-02T17:47:07.201Z,5.68
2022-08-02T17:49:38.361Z,7.53
2022-08-02T17:52:49.611Z,4.93
2022-08-02T17:54:57.953Z,5.40
2022-08-02T17:57:24.441Z,4.10
2022-08-02T18:00:11.663Z,6.45
2022-08-02T18:02:39.048Z,5.13
2022-08-02T18:05:05.932Z,7.18
2022-08-02T18:07:53.011Z,4.60
2022-08-02T18:10:23.393Z,5.47
2022-08-02T18:12:53.371Z,3.53
2022-08-02T18:15:22.975Z,5.43
2022-08-02T18:17:49.459Z,4.65
2022-08-02T18:20:16.954Z,4.90
2022-08-02T18:22:44.972Z,8.15
2022-08-02T18:25:18.321Z,4.43
2022-08-02T18:27:58.315Z,3.17
2022-08-02T18:30:28.126Z,3.80
2022-08-02T18:33:58.413Z,6.03
2022-08-02T18:35:42.551Z,3.58
2022-08-02T18:38:10.988Z,4.53
2022-08-02T18:40:38.489Z,6.60
2022-08-02T18:43:07.117Z,4.60
2022-08-02T18:46:04.750Z,3.33
2022-08-02T18:48:21.064Z,3.35
2022-08-02T18:50:48.395Z,3.70
2022-08-02T18:53:16.733Z,3.25
2022-08-02T18:55:59.900Z,2.63
2022-08-02T18:58:31.078Z,2.72
2022-08-02T19:00:58.362Z,3.30
2022-08-02T19:03:25.947Z,4.53
2022-08-02T19:05:53.956Z,3.63
2022-08-02T19:08:25.589Z,4.40
2022-08-02T19:10:53.103Z,3.47
2022-08-02T19:13:21.766Z,4.05
2022-08-02T19:15:48.323Z,5.65
2022-08-02T19:18:14.876Z,2.38
2022-08-02T19:20:41.370Z,3.17
2022-08-02T19:23:15.102Z,2.88
2022-08-02T19:25:50.246Z,3.88
2022-08-02T19:28:26.078Z,2.92
2022-08-02T19:30:54.300Z,3.38
2022-08-02T19:33:54.538Z,6.30
2022-08-02T19:36:07.471Z,2.65
2022-08-02T19:38:34.380Z,2.20
2022-08-02T19:41:01.707Z,4.30
2022-08-02T19:44:25.925Z,5.93
2022-08-02T19:46:15.679Z,2.15
2022-08-02T19:48:45.975Z,2.15
2022-08-02T19:51:12.940Z,3.05
2022-08-02T19:53:48.167Z,2.42
2022-08-02T19:56:24.800Z,2.60
2022-08-02T19:58:53.997Z,2.92
2022-08-02T20:01:28.235Z,3.75
2022-08-02T20:04:06.593Z,2.13
2022-08-02T20:06:33.088Z,2.15
2022-08-02T20:09:00.983Z,1.88
2022-08-02T20:11:29.255Z,2.80
2022-08-02T20:14:01.764Z,2.15
2022-08-02T20:16:32.957Z,3.20
2022-08-02T20:19:00.399Z,2.00
2022-08-02T20:21:35.726Z,2.22
2022-08-02T20:24:11.774Z,2.67
2022-08-02T20:26:47.500Z,2.20
2022-08-02T20:29:15.003Z,4.03
2022-08-02T20:31:44.152Z,2.17
2022-08-02T20:34:10.609Z,3.15
2022-08-02T20:36:38.163Z,1.55
2022-08-02T20:39:04.796Z,2.72
2022-08-02T20:41:37.228Z,1.60
2022-08-02T20:44:15.893Z,1.75
2022-08-02T20:46:56.521Z,2.30
2022-08-02T20:49:41.064Z,2.38
2022-08-02T20:52:23.630Z,1.90
2022-08-02T20:54:51.251Z,1.92
2022-08-02T20:57:17.700Z,2.97
2022-08-02T20:59:44.164Z,3.20
2022-08-02T21:02:19.109Z,1.17
2022-08-02T21:04:46.872Z,2.28
2022-08-02T21:07:13.444Z,1.83
2022-08-02T21:09:53.475Z,2.10
2022-08-02T21:12:22.038Z,1.67
2022-08-02T21:14:56.855Z,3.13
2022-08-02T21:17:26.979Z,3.20
2022-08-02T21:20:10.099Z,1.65
2022-08-02T21:22:37.356Z,1.25
2022-08-02T21:25:09.013Z,1.20
2022-08-02T21:27:51.676Z,0.98
2022-08-02T21:30:24.350Z,1.77
2022-08-02T21:32:54.466Z,2.00
2022-08-02T21:35:22.659Z,1.77
2022-08-02T21:37:49.937Z,1.42
2022-08-02T21:40:24.883Z,1.95
2022-08-02T21:42:51.331Z,0.82
2022-08-02T21:45:20.039Z,1.42
2022-08-02T21:47:46.776Z,1.73
2022-08-02T21:50:16.458Z,3.80
2022-08-02T21:52:52.128Z,1.67
2022-08-02T21:55:59.935Z,1.70
2022-08-02T21:58:16.552Z,3.67
2022-08-02T22:00:46.959Z,0.93
2022-08-02T22:03:22.269Z,1.85
2022-08-02T22:05:49.847Z,1.83
2022-08-02T22:08:17.326Z,1.50
2022-08-02T22:11:03.294Z,3.80
2022-08-02T22:13:38.792Z,1.50
2022-08-02T22:16:13.705Z,0.83
2022-08-02T22:18:40.154Z,1.83
2022-08-02T22:21:14.339Z,0.60
2022-08-02T22:23:51.151Z,1.30
2022-08-02T22:26:19.181Z,0.88
2022-08-02T22:28:50.497Z,0.90
2022-08-02T22:31:19.084Z,3.55
2022-08-02T22:34:06.120Z,0.65
2022-08-02T22:36:52.609Z,0.88
2022-08-02T22:39:19.794Z,1.08
2022-08-02T22:42:01.517Z,0.77
2022-08-02T22:44:32.932Z,3.13
2022-08-02T22:47:07.290Z,1.55
2022-08-02T22:49:45.584Z,4.72
2022-08-02T22:52:20.859Z,2.45
2022-08-02T22:54:47.426Z,1.35
2022-08-02T22:57:13.900Z,0.95
2022-08-02T22:58:35.063Z,6.18
2022-08-02T22:59:41.071Z,0.63
2022-08-02T23:02:09.449Z,1.30
2022-08-02T23:04:37.147Z,0.80
2022-08-02T23:07:04.689Z,0.60
2022-08-02T23:09:31.234Z,1.08
2022-08-02T23:11:57.703Z,2.72
2022-08-02T23:14:24.294Z,1.27
2022-08-02T23:17:09.459Z,1.30
2022-08-02T23:19:50.769Z,0.65
2022-08-02T23:22:18.344Z,0.60
2022-08-02T23:24:46.033Z,0.60
2022-08-02T23:27:12.563Z,1.15
2022-08-02T23:29:39.055Z,1.17
2022-08-02T23:32:05.831Z,2.05
2022-08-02T23:34:33.414Z,1.17
2022-08-02T23:37:00.176Z,0.88
2022-08-02T23:39:26.629Z,0.95
2022-08-02T23:41:54.912Z,0.85
2022-08-02T23:44:22.795Z,0.98
2022-08-02T23:46:49.238Z,0.68
2022-08-02T23:49:16.679Z,0.43
2022-08-02T23:51:43.591Z,0.82
2022-08-02T23:54:11.105Z,1.48
2022-08-02T23:56:38.883Z,0.93
2022-08-02T23:59:07.601Z,1.83
